Terminal Aerodrome Forecast
Issued by NWS Chicago, IL

Home | Current Version | Previous Version | Graphics & Text | Print | Product List | Glossary On
Versions: 1 2 3 4 5 6 7 8 9 10 11 12 13 14 15 16 17 18 19 20 21 22 23 24 25 26 27 28 29 30 31 32 33
000
FTUS43 KLOT 250500
TAFRFD
TAF
KRFD 250520Z 2506/2606 16006KT 5SM BR BCFG SCT020
     FM251100 18004KT 3SM BR BCFG VCSH SCT009 BKN020
     FM251500 20009KT P6SM SCT030 BKN250
     FM251800 21011KT P6SM SCT035 BKN250 PROB30 2522/2601 5SM TSRA
      BKN035CB
     FM260200 19005KT P6SM FEW020 BKN250=

USA.gov is the U.S. government's official web portal to all federal, state and local government web resources and services.